メインページ
METAR-TAF:

METAR-TAF

空港 :

ポートモレスビー・ジャクソン国際空港

ポートモレスビー, パプアニューギニア

緯度: 09-26S, 経度: 147-13E, 海抜: 38m

現時点の気象観測

当レポートは1時間52分前の05:00(UTC)に作成
南/南東の風 20kt
気温 29°C
湿度 62%
気圧 1010 hPa
視程10km以上
高度3500ftの雲はほとんどない
高度5000ftの雲は散在している
煙霧

METAR: AYPY 150500Z 15020KT 9999 HZ FEW035 SCT050 29/21 Q1010 RMK/ BUILD UPS N TO E

時間: 16:52 (06:52 UTC)

予報

当レポートは3時間49分前の03:03(UTC)に作成
予報は15日の 06時(UTC)から 16日の 06時(UTC)まで有効
南/南東の風 15kt
視程10km以上
高度2000ftの雲は散在している
高度14000ftの雲は散在している
15日の 0900時(UTC)から
南/南東の風 7kt
視程10km以上
高度2500ftの雲は散在している

TAF: AYPY 150303Z 1506/1606 15015KT 9999 SCT020 SCT140 FM150900 16007KT 9999 SCT025

4,000以上の空港の気象観測と天気予報(METAR報とTAF報)

利用可能な観測所は地図上に黄色い丸と赤い丸で示す。

丸の上にカーソルを重ねると観測所名を参照できる。

次にクリックすると気象観測と天気予報を参照できる。

マップの切り替え:黒色「×」印の緑ボタンをクリックして拡大、「-」印の緑ボタンをクリックして縮小、緑色の三角印をクリックして隣りの地図に切り替え


METAR-TAF: